Time;durP1;ratioP1;P1;durP2;ratioP2;P2;SDS_P1;SDS_P2;PMS_P1;PMS_P2;Temp;Humidity;BMP_temperature;BMP_pressure;BME280_temperature;BME280_humidity;BME280_pressure;Samples;Min_cycle;Max_cycle;Signal;HPM_P1;HPM_P2
2021/12/18 00:00:39;;;;;;;;;38.25;29.75;;;;;7.25;75.84;103331.19;5028234;28;46072;-54
2021/12/18 00:03:06;;;;;;;;;35.25;31.25;;;;;7.24;75.79;103330.34;5029368;28;45344;-53
2021/12/18 00:05:31;;;;;;;;;40.75;32.25;;;;;7.23;75.78;103331.22;5029430;28;45326;-49
2021/12/18 00:07:57;;;;;;;;;44.25;35.50;;;;;7.22;75.96;103323.38;5030679;28;45417;-52
2021/12/18 00:10:24;;;;;;;;;40.75;24.00;;;;;7.22;75.68;103331.22;5028531;28;45406;-51
2021/12/18 00:12:51;;;;;;;;;33.00;29.00;;;;;7.19;75.91;103320.75;5029145;28;45407;-53
2021/12/18 00:15:18;;;;;;;;;37.00;29.00;;;;;7.18;75.65;103319.88;5044446;28;45543;-51
2021/12/18 00:17:44;;;;;;;;;37.00;29.25;;;;;7.18;75.43;103308.50;5030608;28;45386;-53
2021/12/18 00:20:10;;;;;;;;;42.75;35.00;;;;;7.18;75.91;103324.25;5030863;28;45486;-50
2021/12/18 00:22:36;;;;;;;;;40.25;32.50;;;;;7.17;75.70;103319.88;5029276;28;45466;-50
2021/12/18 00:25:03;;;;;;;;;44.25;34.50;;;;;7.15;75.17;103317.25;5028479;28;45403;-52
2021/12/18 00:27:28;;;;;;;;;45.50;33.00;;;;;7.14;75.72;103318.16;5029847;28;45470;-52
2021/12/18 00:29:54;;;;;;;;;38.50;30.50;;;;;7.14;75.43;103312.03;5030315;28;45365;-51
2021/12/18 00:32:19;;;;;;;;;34.75;29.50;;;;;7.12;75.50;103313.81;5028512;28;45341;-50
2021/12/18 00:34:45;;;;;;;;;29.50;26.50;;;;;7.10;75.35;103310.28;5024777;28;45562;-52
2021/12/18 00:37:10;;;;;;;;;36.00;28.25;;;;;7.08;75.10;103312.91;5029182;28;45550;-50
2021/12/18 00:39:42;;;;;;;;;29.50;26.25;;;;;7.06;75.02;103303.34;5031682;28;46087;-49
2021/12/18 00:42:21;;;;;;;;;30.00;29.25;;;;;7.06;75.40;103308.56;5027319;28;45582;-50
2021/12/18 00:44:46;;;;;;;;;58.00;42.75;;;;;7.03;74.91;103304.22;5028849;28;45373;-51
2021/12/18 00:47:11;;;;;;;;;23.00;18.25;;;;;7.00;75.44;103306.84;5030870;28;45517;-50
2021/12/18 00:49:37;;;;;;;;;27.25;22.50;;;;;6.98;75.54;103303.34;5030354;28;45241;-49
2021/12/18 00:52:03;;;;;;;;;35.25;31.00;;;;;6.95;75.28;103301.63;5025619;28;45293;-54
2021/12/18 00:54:29;;;;;;;;;33.25;26.75;;;;;6.92;75.20;103293.75;5030079;28;45588;-51
2021/12/18 00:56:55;;;;;;;;;31.00;24.75;;;;;6.93;75.08;103295.50;5026375;28;45376;-49
2021/12/18 00:59:20;;;;;;;;;26.00;22.50;;;;;6.94;75.27;103293.75;5028379;28;45489;-50
2021/12/18 01:01:47;;;;;;;;;34.00;31.25;;;;;6.93;74.94;103298.13;5027041;28;45435;-53
2021/12/18 01:04:13;;;;;;;;;34.00;28.75;;;;;6.92;74.95;103296.38;5031576;28;45571;-51
2021/12/18 01:06:38;;;;;;;;;31.75;27.75;;;;;6.90;74.96;103298.13;5014521;28;45526;-53
2021/12/18 01:09:04;;;;;;;;;33.25;28.75;;;;;6.89;74.83;103303.38;5020805;28;45405;-51
2021/12/18 01:11:51;;;;;;;;;26.25;24.75;;;;;6.86;75.29;103300.75;5026444;28;45522;-50
2021/12/18 01:24:49;;;;;;;;;28.00;26.25;;;;;6.74;75.10;103311.28;5026483;28;45170;-50
2021/12/18 01:27:15;;;;;;;;;37.00;27.00;;;;;6.74;75.04;103317.38;5028938;28;45657;-52
2021/12/18 01:29:41;;;;;;;;;33.50;29.50;;;;;6.71;75.42;103310.41;5032779;28;46048;-53
2021/12/18 01:32:07;;;;;;;;;30.50;25.25;;;;;6.68;74.85;103310.41;5030348;28;45377;-47
2021/12/18 01:34:33;;;;;;;;;25.25;21.25;;;;;6.66;74.86;103312.16;5029053;28;45398;-48
2021/12/18 01:36:59;;;;;;;;;34.25;22.50;;;;;6.65;74.78;103315.66;5029430;28;45378;-52
2021/12/18 01:39:24;;;;;;;;;32.00;28.50;;;;;6.66;75.29;103324.38;5031644;28;45439;-53
2021/12/18 01:42:28;;;;;;;;;32.50;23.50;;;;;6.64;75.32;103313.91;5031260;28;45332;-49
2021/12/18 01:45:04;;;;;;;;;33.75;27.00;;;;;6.62;75.03;103322.63;5030629;28;45426;-52
2021/12/18 01:52:45;;;;;;;;;28.00;23.75;;;;;6.58;75.03;103324.41;5032578;28;45417;-51
2021/12/18 01:55:11;;;;;;;;;38.50;26.50;;;;;6.55;75.19;103326.13;5032559;28;45444;-51
2021/12/18 01:57:37;;;;;;;;;28.00;25.25;;;;;6.52;75.26;103328.75;5033451;28;45452;-53
2021/12/18 02:00:17;;;;;;;;;31.00;27.25;;;;;6.53;75.36;103322.66;5029940;28;46142;-52
2021/12/18 02:02:43;;;;;;;;;26.00;22.00;;;;;6.50;74.93;103314.81;5032921;28;45348;-49
2021/12/18 02:05:09;;;;;;;;;30.50;25.00;;;;;6.49;74.81;103315.69;5029098;28;45459;-51
2021/12/18 02:07:34;;;;;;;;;28.00;22.25;;;;;6.46;75.16;103329.63;5032880;28;45534;-49
2021/12/18 02:10:04;;;;;;;;;32.50;25.25;;;;;6.46;75.24;103324.41;5029733;28;45681;-53
2021/12/18 02:20:50;;;;;;;;;31.50;23.50;;;;;6.45;74.80;103333.13;5031981;28;45765;-48
2021/12/18 02:23:16;;;;;;;;;29.75;20.75;;;;;6.44;74.79;103332.25;5030181;28;45825;-52
2021/12/18 02:25:46;;;;;;;;;28.00;22.00;;;;;6.41;75.28;103332.28;5031694;28;45577;-49
2021/12/18 02:28:19;;;;;;;;;32.00;24.75;;;;;6.37;75.27;103335.75;5028531;28;45557;-48
2021/12/18 02:30:48;;;;;;;;;31.25;24.50;;;;;6.35;75.21;103323.53;5033312;28;46238;-52
2021/12/18 02:33:14;;;;;;;;;18.50;14.25;;;;;6.31;74.76;103333.13;5033627;28;45361;-52
2021/12/18 02:35:53;;;;;;;;;25.50;24.50;;;;;6.30;74.68;103326.16;5032100;28;45384;-51
2021/12/18 02:38:28;;;;;;;;;29.00;21.25;;;;;6.29;74.77;103320.91;5031229;28;45514;-52
2021/12/18 02:43:29;;;;;;;;;23.25;19.25;;;;;6.29;74.70;103324.41;5030869;28;45252;-51
2021/12/18 02:45:59;;;;;;;;;27.25;23.25;;;;;6.31;75.40;103321.78;5034092;28;45425;-50
2021/12/18 02:48:27;;;;;;;;;35.75;27.75;;;;;6.30;75.60;103315.69;5031969;28;45408;-50
2021/12/18 02:50:52;;;;;;;;;35.75;25.75;;;;;6.33;74.84;103312.22;5031777;28;46158;-47
2021/12/18 02:53:18;;;;;;;;;27.25;23.00;;;;;6.37;74.96;103325.28;5028568;28;45554;-52
2021/12/18 02:55:43;;;;;;;;;30.25;23.25;;;;;6.36;74.54;103328.78;5031783;28;45431;-51
2021/12/18 02:58:09;;;;;;;;;29.50;25.00;;;;;6.34;75.19;103322.66;5030809;28;45444;-50
2021/12/18 03:00:35;;;;;;;;;30.75;24.25;;;;;6.36;74.78;103325.28;5030342;28;45499;-52
2021/12/18 03:03:06;;;;;;;;;29.50;24.50;;;;;6.37;74.60;103320.03;5032114;28;45304;-51
2021/12/18 03:05:38;;;;;;;;;32.25;25.75;;;;;6.40;74.58;103320.06;5025019;28;45367;-50
2021/12/18 03:08:12;;;;;;;;;28.50;24.00;;;;;6.42;75.04;103326.16;5045734;28;45320;-50
2021/12/18 03:22:36;;;;;;;;;34.75;30.75;;;;;6.71;74.90;103327.84;5030126;28;45491;-49
2021/12/18 03:24:29;;;;;;;;;36.25;27.50;;;;;6.78;74.62;103318.25;5028872;28;45492;-50
2021/12/18 03:26:55;;;;;;;;;34.00;29.50;;;;;6.81;74.34;103321.75;5030002;28;45314;-49
2021/12/18 03:29:21;;;;;;;;;33.50;26.75;;;;;6.87;74.48;103320.84;5029615;28;45516;-50
2021/12/18 03:31:46;;;;;;;;;34.50;24.25;;;;;6.90;74.26;103323.47;5030120;28;46269;-47
2021/12/18 03:34:12;;;;;;;;;44.00;29.50;;;;;6.90;74.21;103313.84;5032403;28;45447;-48
2021/12/18 03:36:38;;;;;;;;;30.25;25.25;;;;;6.91;74.39;103312.09;5032290;28;45161;-49
2021/12/18 03:39:03;;;;;;;;;32.75;27.25;;;;;6.92;74.70;103311.22;5029906;28;45525;-47
2021/12/18 03:41:29;;;;;;;;;34.50;28.75;;;;;6.96;74.47;103318.22;5030617;28;45348;-48
2021/12/18 03:43:55;;;;;;;;;32.00;25.75;;;;;6.97;74.41;103304.25;5029996;28;45219;-51
2021/12/18 03:46:20;;;;;;;;;29.50;24.50;;;;;6.98;74.32;103298.13;5032159;28;45431;-51
2021/12/18 03:48:46;;;;;;;;;33.50;27.50;;;;;6.99;74.79;103310.34;5030313;28;45675;-49
2021/12/18 03:51:11;;;;;;;;;33.00;23.00;;;;;6.96;74.76;103292.88;5031228;28;45438;-49
2021/12/18 03:53:37;;;;;;;;;26.75;24.00;;;;;7.00;74.65;103293.72;5029841;28;45436;-50
2021/12/18 03:56:02;;;;;;;;;34.25;29.75;;;;;7.03;74.45;103300.69;5030145;28;45533;-47
2021/12/18 03:58:28;;;;;;;;;29.75;27.25;;;;;6.99;75.10;103290.25;5032114;28;45573;-50
2021/12/18 04:00:54;;;;;;;;;32.00;23.25;;;;;7.02;75.07;103286.72;5031717;28;46161;-50
2021/12/18 04:03:20;;;;;;;;;35.50;25.50;;;;;7.06;74.91;103288.47;5030231;28;45459;-50
2021/12/18 04:05:45;;;;;;;;;37.00;26.50;;;;;7.09;74.86;103283.22;5030160;28;45672;-51
2021/12/18 04:08:11;;;;;;;;;25.00;21.25;;;;;7.13;74.61;103289.31;5030113;28;45224;-49
2021/12/18 04:10:38;;;;;;;;;24.00;23.00;;;;;7.16;75.06;103289.31;5030567;28;46118;-51
2021/12/18 04:13:05;;;;;;;;;39.50;24.50;;;;;7.19;74.58;103286.69;5030761;28;45241;-50
2021/12/18 04:15:31;;;;;;;;;41.00;32.50;;;;;7.23;74.68;103280.53;5025671;28;45327;-52
2021/12/18 04:17:56;;;;;;;;;35.50;29.75;;;;;7.30;75.12;103289.25;5029424;28;45242;-50
2021/12/18 04:20:23;;;;;;;;;29.25;25.75;;;;;7.34;74.60;103297.06;5029141;28;45239;-51
2021/12/18 04:22:49;;;;;;;;;34.75;25.25;;;;;7.38;74.77;103290.09;5031022;28;45311;-49
2021/12/18 04:25:15;;;;;;;;;33.50;29.25;;;;;7.40;74.84;103294.44;5030880;28;45316;-52
2021/12/18 04:27:40;;;;;;;;;26.25;23.75;;;;;7.42;74.62;103297.03;5029662;28;45554;-52
2021/12/18 04:30:06;;;;;;;;;29.50;24.50;;;;;7.44;74.76;103290.06;5029181;28;46197;-52
2021/12/18 04:32:32;;;;;;;;;33.25;29.00;;;;;7.45;74.75;103286.56;5031777;28;45284;-47
2021/12/18 04:34:57;;;;;;;;;35.75;28.50;;;;;7.46;74.57;103286.53;5029931;28;45402;-48
2021/12/18 04:37:23;;;;;;;;;39.00;28.50;;;;;7.50;74.70;103292.63;5030006;28;45254;-48
2021/12/18 04:39:50;;;;;;;;;34.25;27.25;;;;;7.51;74.40;103292.66;5029870;28;45975;-51
2021/12/18 04:42:16;;;;;;;;;39.50;29.50;;;;;7.50;74.81;103290.00;5026807;28;45288;-49
2021/12/18 04:44:41;;;;;;;;;31.50;24.50;;;;;7.52;74.77;103291.75;5030256;28;45675;-51
2021/12/18 04:47:07;;;;;;;;;33.50;28.25;;;;;7.57;74.65;103296.97;5030563;28;45650;-51
2021/12/18 04:49:32;;;;;;;;;32.25;27.50;;;;;7.61;74.44;103293.44;5030837;28;46453;-52
2021/12/18 04:51:58;;;;;;;;;38.00;30.00;;;;;7.63;74.65;103296.06;5029515;28;45427;-52
2021/12/18 04:54:23;;;;;;;;;35.75;28.00;;;;;7.63;74.89;103299.56;5029115;28;45514;-50
2021/12/18 04:56:49;;;;;;;;;32.50;26.75;;;;;7.65;74.64;103310.91;5029334;28;45617;-49
2021/12/18 04:59:14;;;;;;;;;35.25;26.00;;;;;7.66;74.45;103299.56;5030000;28;45487;-51
2021/12/18 05:01:40;;;;;;;;;34.00;26.75;;;;;7.66;74.36;103301.28;5030093;28;45443;-48
2021/12/18 05:04:11;;;;;;;;;36.00;29.50;;;;;7.66;74.34;103311.78;5029485;28;45399;-47
2021/12/18 05:06:40;;;;;;;;;28.25;19.25;;;;;7.62;74.35;103308.31;5027864;28;45435;-50
2021/12/18 05:09:06;;;;;;;;;39.25;28.75;;;;;7.62;74.31;103318.81;5030441;28;45391;-50
2021/12/18 05:11:32;;;;;;;;;32.00;29.00;;;;;7.63;74.21;103304.78;5026688;28;45464;-49
2021/12/18 05:13:58;;;;;;;;;32.00;27.25;;;;;7.65;74.04;103310.03;5029055;28;45281;-51
2021/12/18 05:16:23;;;;;;;;;27.50;24.50;;;;;7.63;74.25;103303.94;5028867;28;45265;-49
2021/12/18 05:18:49;;;;;;;;;34.25;29.00;;;;;7.65;74.23;103310.91;5030749;28;45886;-54
2021/12/18 05:21:14;;;;;;;;;35.75;31.00;;;;;7.67;74.17;103316.16;5031113;28;45402;-47
2021/12/18 05:23:40;;;;;;;;;36.50;32.25;;;;;7.70;74.03;103317.00;5030630;28;45387;-51
2021/12/18 05:26:05;;;;;;;;;36.50;27.50;;;;;7.74;73.87;103318.75;5029650;28;45623;-50
2021/12/18 05:28:31;;;;;;;;;39.25;28.75;;;;;7.75;74.09;103312.59;5029265;28;45200;-49
2021/12/18 05:30:56;;;;;;;;;36.00;30.75;;;;;7.76;73.97;103316.97;5028353;28;45241;-51
2021/12/18 05:33:21;;;;;;;;;23.75;21.00;;;;;7.79;73.80;103309.06;5030185;28;45444;-51
2021/12/18 05:35:47;;;;;;;;;38.75;26.00;;;;;7.79;73.94;103311.69;5030084;28;46411;-47
2021/12/18 05:38:12;;;;;;;;;27.00;22.75;;;;;7.80;73.96;103308.19;5030178;28;45542;-50
2021/12/18 05:40:38;;;;;;;;;44.50;26.25;;;;;7.84;73.64;103311.69;5028596;28;45507;-53
2021/12/18 05:43:05;;;;;;;;;39.50;31.25;;;;;7.84;73.55;103312.53;5028454;28;45452;-51
2021/12/18 05:45:31;;;;;;;;;39.25;29.75;;;;;7.84;73.47;103312.53;5030625;28;45502;-47
2021/12/18 05:47:56;;;;;;;;;37.75;30.25;;;;;7.83;73.66;103309.94;5030081;28;45421;-51
2021/12/18 05:50:27;;;;;;;;;32.50;25.75;;;;;7.83;73.48;103313.44;5028974;28;45561;-48
2021/12/18 05:52:54;;;;;;;;;39.00;26.50;;;;;7.87;73.71;103311.66;5026157;28;45276;-47
2021/12/18 05:55:22;;;;;;;;;36.75;26.00;;;;;7.87;73.64;103308.16;5027393;28;45403;-49
2021/12/18 05:57:48;;;;;;;;;33.50;28.00;;;;;7.90;73.11;103310.75;5029822;28;45448;-47
2021/12/18 06:00:15;;;;;;;;;35.75;27.00;;;;;7.87;73.25;103306.41;5030227;28;45384;-48
2021/12/18 06:02:40;;;;;;;;;29.25;23.75;;;;;7.82;73.06;103306.44;5029072;28;45330;-49
2021/12/18 06:05:07;;;;;;;;;37.00;27.50;;;;;7.81;72.90;103311.69;5028563;28;45229;-48
2021/12/18 06:07:51;;;;;;;;;35.50;25.50;;;;;7.79;73.08;103309.06;5025707;28;46247;-48
2021/12/18 06:10:16;;;;;;;;;36.00;29.50;;;;;7.76;73.29;103300.34;5030974;28;45279;-52
2021/12/18 06:12:42;;;;;;;;;27.50;22.25;;;;;7.73;73.01;103303.84;5033296;28;45247;-50
2021/12/18 06:15:08;;;;;;;;;30.75;28.00;;;;;7.70;73.26;103290.78;5032730;28;46394;-49
2021/12/18 06:17:33;;;;;;;;;31.50;24.50;;;;;7.68;73.18;103296.91;5027032;28;46293;-51
2021/12/18 06:19:58;;;;;;;;;34.50;29.00;;;;;7.65;73.30;103303.03;5032900;28;45448;-52
2021/12/18 06:22:24;;;;;;;;;27.00;23.75;;;;;7.62;73.34;103297.81;5035231;28;45567;-50
2021/12/18 06:24:49;;;;;;;;;37.00;25.00;;;;;7.55;73.14;103291.72;5033392;28;45501;-49
2021/12/18 06:27:15;;;;;;;;;29.50;25.50;;;;;7.51;73.19;103290.03;5031402;28;45454;-48
2021/12/18 06:29:42;;;;;;;;;35.25;25.50;;;;;7.46;73.46;103301.41;5031970;28;45478;-48
2021/12/18 06:32:08;;;;;;;;;33.00;24.75;;;;;7.37;73.65;103294.47;5026902;28;45322;-50
2021/12/18 06:34:34;;;;;;;;;26.25;23.50;;;;;7.32;73.58;103290.09;5023843;28;45427;-51
2021/12/18 06:36:59;;;;;;;;;26.75;24.25;;;;;7.24;73.80;103300.63;5023147;28;45236;-55
2021/12/18 06:39:25;;;;;;;;;57.00;40.00;;;;;7.20;73.73;103301.53;5023009;28;45233;-51
2021/12/18 06:41:50;;;;;;;;;29.50;23.50;;;;;7.18;73.67;103308.50;5022971;28;45248;-50
2021/12/18 06:44:16;;;;;;;;;27.25;22.75;;;;;7.15;74.06;103309.41;5022944;28;45341;-51
2021/12/18 06:46:42;;;;;;;;;30.00;20.75;;;;;7.11;73.98;103310.31;5022701;28;45328;-49
2021/12/18 06:49:09;;;;;;;;;22.25;20.75;;;;;7.04;73.75;103308.59;5022805;28;45368;-50
2021/12/18 06:51:35;;;;;;;;;30.00;26.00;;;;;7.00;74.27;103314.69;5022714;28;45292;-51
2021/12/18 06:54:00;;;;;;;;;28.00;22.50;;;;;6.96;74.15;103307.75;5020379;28;45529;-50
2021/12/18 06:56:26;;;;;;;;;27.25;24.75;;;;;6.91;74.26;103306.88;5019061;28;46159;-50
2021/12/18 06:58:51;;;;;;;;;30.25;22.75;;;;;6.88;73.87;103322.59;5022332;28;45333;-47
2021/12/18 07:01:17;;;;;;;;;31.50;25.50;;;;;6.82;73.95;103315.63;5022481;28;45461;-52
2021/12/18 07:03:42;;;;;;;;;34.25;25.25;;;;;6.78;74.36;103303.41;5022566;28;45375;-49
2021/12/18 07:06:08;;;;;;;;;25.25;19.50;;;;;6.78;74.71;103305.16;5022243;28;46017;-50
2021/12/18 07:08:34;;;;;;;;;29.00;21.25;;;;;6.77;74.64;103321.75;5022492;28;45301;-50
2021/12/18 07:10:59;;;;;;;;;27.25;25.50;;;;;6.74;74.73;103313.91;5022440;28;45369;-49
2021/12/18 07:13:25;;;;;;;;;32.50;23.75;;;;;6.71;74.26;103317.38;5022432;28;45261;-52
2021/12/18 07:15:52;;;;;;;;;31.50;23.00;;;;;6.69;74.84;103321.75;5022235;28;45276;-49
2021/12/18 07:18:17;;;;;;;;;30.00;20.25;;;;;6.70;74.88;103321.75;5022385;28;45640;-51
2021/12/18 07:20:43;;;;;;;;;29.00;23.00;;;;;6.68;74.37;103315.66;5022384;28;45310;-49
2021/12/18 07:23:08;;;;;;;;;32.75;26.00;;;;;6.66;74.12;103320.03;5020977;28;45332;-51
2021/12/18 07:25:34;;;;;;;;;27.25;23.25;;;;;6.65;74.89;103326.13;5037180;28;45369;-50
2021/12/18 07:27:59;;;;;;;;;41.75;26.75;;;;;6.63;74.92;103324.38;5021987;28;45335;-47
2021/12/18 07:30:25;;;;;;;;;24.25;19.75;;;;;6.61;74.49;103329.63;5016946;28;45459;-52
2021/12/18 07:32:50;;;;;;;;;25.75;23.25;;;;;6.59;74.40;103325.28;5026855;28;45542;-52
2021/12/18 07:35:16;;;;;;;;;26.25;21.75;;;;;6.59;74.47;103327.88;5026916;28;45409;-48
2021/12/18 07:37:42;;;;;;;;;26.50;22.25;;;;;6.59;74.51;103330.50;5012468;28;45360;-51
2021/12/18 07:40:09;;;;;;;;;36.25;22.50;;;;;6.58;74.64;103339.25;5015794;28;45269;-50
2021/12/18 07:42:34;;;;;;;;;30.75;23.50;;;;;6.57;74.44;103335.75;5002801;28;45432;-50
2021/12/18 07:45:01;;;;;;;;;26.00;20.75;;;;;6.60;75.07;103340.09;5006840;28;45444;-50
2021/12/18 07:47:26;;;;;;;;;25.00;23.00;;;;;6.62;75.06;103335.72;5016619;28;45479;-50
2021/12/18 07:49:52;;;;;;;;;30.75;27.00;;;;;6.65;74.47;103338.38;5017667;28;45146;-51
2021/12/18 07:52:18;;;;;;;;;27.00;24.25;;;;;6.67;74.85;103340.09;5024974;28;45363;-50
2021/12/18 07:54:43;;;;;;;;;42.25;33.25;;;;;6.69;74.72;103334.84;5010913;28;46131;-50
2021/12/18 07:57:09;;;;;;;;;26.00;23.25;;;;;6.67;74.69;103336.59;5015086;28;45312;-48
2021/12/18 07:59:34;;;;;;;;;34.50;28.75;;;;;6.64;74.76;103336.63;5015453;28;45328;-50
2021/12/18 08:02:01;;;;;;;;;32.00;26.25;;;;;6.60;75.15;103332.25;5014992;28;45366;-51
2021/12/18 08:04:27;;;;;;;;;36.00;24.50;;;;;6.59;74.96;103339.22;5016619;28;45331;-52
2021/12/18 08:06:53;;;;;;;;;29.75;23.25;;;;;6.57;74.62;103335.75;5014606;28;45367;-50
2021/12/18 08:09:18;;;;;;;;;35.50;27.00;;;;;6.56;74.38;103330.53;5016787;28;45478;-49
2021/12/18 08:11:44;;;;;;;;;38.25;24.00;;;;;6.59;75.41;103336.63;5014616;28;45524;-51
2021/12/18 08:14:09;;;;;;;;;26.00;22.25;;;;;6.60;74.74;103329.63;5001937;28;45855;-52
2021/12/18 08:16:35;;;;;;;;;24.50;22.50;;;;;6.61;75.24;103334.00;5002979;28;45236;-50
2021/12/18 08:19:00;;;;;;;;;19.75;18.25;;;;;6.62;75.11;103327.88;5011004;28;45403;-52
2021/12/18 08:21:26;;;;;;;;;32.00;25.75;;;;;6.63;74.55;103337.47;5014876;28;45227;-48
2021/12/18 08:23:51;;;;;;;;;36.75;28.25;;;;;6.65;75.01;103333.13;5022481;28;45417;-51
2021/12/18 08:26:17;;;;;;;;;24.50;21.25;;;;;6.67;74.22;103342.72;5014299;28;45310;-50
2021/12/18 08:28:42;;;;;;;;;22.75;22.75;;;;;6.69;74.79;103340.09;5016007;28;45511;-49
2021/12/18 08:31:07;;;;;;;;;34.00;27.00;;;;;6.69;74.28;103345.31;5016616;28;45570;-49
2021/12/18 08:33:33;;;;;;;;;31.25;27.00;;;;;6.68;74.59;103339.22;5037613;28;45725;-51
2021/12/18 08:35:58;;;;;;;;;34.75;28.50;;;;;6.69;74.63;103351.44;5035103;28;45486;-50
2021/12/18 08:38:24;;;;;;;;;33.25;24.50;;;;;6.70;74.45;103353.19;5022268;28;45380;-50
2021/12/18 08:40:50;;;;;;;;;31.50;26.75;;;;;6.71;74.33;103352.34;5026482;28;45524;-50
2021/12/18 08:43:16;;;;;;;;;29.50;22.50;;;;;6.67;74.02;103350.56;5038382;28;45387;-48
2021/12/18 08:45:41;;;;;;;;;27.25;23.25;;;;;6.69;74.42;103346.19;5038890;28;45284;-48
2021/12/18 08:48:07;;;;;;;;;27.75;22.25;;;;;6.72;74.05;103353.19;5038107;28;45366;-48
2021/12/18 08:50:32;;;;;;;;;25.75;19.50;;;;;6.76;74.25;103349.69;5017644;28;45489;-50
2021/12/18 08:52:58;;;;;;;;;27.00;24.50;;;;;6.73;73.75;103352.31;5027053;28;45957;-53
2021/12/18 08:55:24;;;;;;;;;28.00;23.00;;;;;6.66;74.04;103353.19;5023029;28;45449;-51
2021/12/18 08:57:50;;;;;;;;;25.25;20.50;;;;;6.60;73.94;103346.22;5038184;28;45379;-49
2021/12/18 09:00:20;;;;;;;;;27.50;22.75;;;;;6.61;74.44;103349.69;5037537;28;45334;-52
2021/12/18 09:02:48;;;;;;;;;29.25;26.50;;;;;6.61;73.89;103358.44;5021454;28;46339;-51
2021/12/18 09:05:15;;;;;;;;;26.75;23.50;;;;;6.65;74.20;103356.69;5020110;28;46473;-52
2021/12/18 09:07:41;;;;;;;;;28.75;26.75;;;;;6.68;73.96;103352.31;5026480;28;45237;-50
2021/12/18 09:10:08;;;;;;;;;26.25;24.00;;;;;6.69;73.89;103346.19;5033140;28;45437;-53
2021/12/18 09:12:34;;;;;;;;;34.25;22.00;;;;;6.70;73.87;103353.19;5038965;28;46399;-53
2021/12/18 09:15:00;;;;;;;;;34.25;24.75;;;;;6.72;74.11;103351.44;5024513;28;45306;-50
2021/12/18 09:17:25;;;;;;;;;29.75;21.75;;;;;6.78;73.73;103347.94;5028181;28;45399;-52
2021/12/18 09:19:51;;;;;;;;;31.25;24.50;;;;;6.82;73.99;103343.56;5029052;28;45331;-51
2021/12/18 09:22:17;;;;;;;;;25.25;20.75;;;;;6.85;73.91;103340.94;5038783;28;45414;-52
2021/12/18 09:24:43;;;;;;;;;29.25;20.00;;;;;6.86;74.03;103338.31;5037131;28;45418;-53
2021/12/18 09:27:09;;;;;;;;;31.25;23.75;;;;;6.91;73.97;103336.56;5030680;28;45194;-52
2021/12/18 09:29:35;;;;;;;;;33.25;27.00;;;;;6.93;73.53;103336.56;5027075;28;46289;-49
2021/12/18 09:32:00;;;;;;;;;33.00;27.25;;;;;6.93;73.14;103328.69;5025045;28;45329;-52
2021/12/18 09:34:28;;;;;;;;;26.50;20.50;;;;;6.92;73.41;103330.44;5037582;28;45416;-50
2021/12/18 09:36:55;;;;;;;;;38.00;33.25;;;;;6.91;73.70;103325.22;5027263;28;45340;-53
2021/12/18 09:39:21;;;;;;;;;30.25;25.50;;;;;6.91;73.15;103322.59;5014118;28;45349;-50
2021/12/18 09:41:51;;;;;;;;;20.75;20.50;;;;;6.92;73.67;103330.44;5033756;28;46159;-52
2021/12/18 09:44:24;;;;;;;;;25.75;19.50;;;;;6.93;73.54;103324.31;5025390;28;46415;-53
2021/12/18 09:46:50;;;;;;;;;36.50;22.50;;;;;6.94;73.43;103317.31;5014251;28;45672;-52
2021/12/18 09:49:16;;;;;;;;;23.50;19.75;;;;;6.95;73.07;103322.59;5024513;28;45357;-54
2021/12/18 09:51:42;;;;;;;;;24.50;22.25;;;;;6.97;72.98;103331.31;5008167;28;45415;-53
2021/12/18 09:54:08;;;;;;;;;34.50;28.50;;;;;7.00;73.43;103325.19;5014061;28;45412;-54
2021/12/18 09:56:34;;;;;;;;;38.00;28.50;;;;;7.02;72.88;103325.16;5010811;28;45459;-54
2021/12/18 09:58:59;;;;;;;;;35.75;28.75;;;;;7.04;73.28;103324.31;5014744;28;45336;-53
2021/12/18 10:01:26;;;;;;;;;33.75;25.50;;;;;7.08;72.90;103325.16;5009096;28;46027;-53
2021/12/18 10:03:58;;;;;;;;;34.00;29.25;;;;;7.13;72.80;103321.66;5015114;28;45348;-54
2021/12/18 10:06:36;;;;;;;;;28.50;24.50;;;;;7.18;72.76;103322.47;5011310;28;45337;-51
2021/12/18 10:09:07;;;;;;;;;34.50;27.25;;;;;7.25;72.97;103315.47;5008578;28;45358;-51
2021/12/18 10:11:34;;;;;;;;;24.75;21.00;;;;;7.29;72.72;103325.09;5005591;28;46065;-53
2021/12/18 10:14:02;;;;;;;;;30.75;25.50;;;;;7.32;72.38;103319.81;5004040;28;45535;-54
2021/12/18 10:16:30;;;;;;;;;34.75;24.25;;;;;7.38;72.41;103321.53;5005583;28;45440;-54
2021/12/18 10:18:58;;;;;;;;;25.00;20.75;;;;;7.39;72.20;103324.16;5004137;28;45507;-53
2021/12/18 10:21:28;;;;;;;;;32.75;25.00;;;;;7.42;71.92;103321.50;5018627;28;45527;-54
2021/12/18 10:23:54;;;;;;;;;29.75;27.00;;;;;7.44;71.84;103321.53;5017161;28;45245;-50
2021/12/18 10:26:37;;;;;;;;;29.25;21.75;;;;;7.51;71.74;103325.88;5019010;28;45313;-54
2021/12/18 10:29:24;;;;;;;;;31.50;25.75;;;;;7.53;71.88;103314.47;5009518;28;45479;-51
2021/12/18 10:31:50;;;;;;;;;26.75;23.00;;;;;7.59;71.56;103304.84;5024746;28;45396;-52
2021/12/18 10:34:27;;;;;;;;;25.00;20.75;;;;;7.63;71.83;103303.94;5041610;28;45312;-51
2021/12/18 10:37:21;;;;;;;;;27.25;23.50;;;;;7.69;71.36;103303.91;5041162;28;45276;-53
2021/12/18 10:39:58;;;;;;;;;34.00;28.75;;;;;7.72;71.11;103311.75;5040241;28;45231;-53
2021/12/18 10:42:29;;;;;;;;;27.00;23.25;;;;;7.77;71.24;103305.59;5041502;28;45514;-50
2021/12/18 10:45:15;;;;;;;;;25.75;21.75;;;;;7.81;71.07;103298.56;5025753;28;45316;-53
2021/12/18 10:47:51;;;;;;;;;37.00;25.50;;;;;7.86;71.07;103295.91;5036929;28;45183;-53
2021/12/18 10:50:22;;;;;;;;;31.50;28.75;;;;;7.91;70.83;103294.13;5041462;28;45323;-54
2021/12/18 10:53:24;;;;;;;;;33.50;24.00;;;;;7.98;70.63;103287.94;5039628;28;45311;-54
2021/12/18 10:55:59;;;;;;;;;36.25;22.50;;;;;8.02;70.49;103293.16;5030925;28;45431;-50
2021/12/18 10:58:26;;;;;;;;;33.00;24.00;;;;;8.08;70.63;103290.50;5040406;28;45395;-53
2021/12/18 11:00:58;;;;;;;;;31.75;25.50;;;;;8.13;70.54;103286.06;5039759;28;45328;-52
2021/12/18 11:03:23;;;;;;;;;34.00;25.50;;;;;8.17;70.39;103276.41;5041154;28;45419;-54
2021/12/18 11:06:16;;;;;;;;;30.25;25.75;;;;;8.21;70.29;103275.50;5028174;28;45433;-56
2021/12/18 11:09:06;;;;;;;;;33.25;25.00;;;;;8.24;70.06;103264.13;5027945;28;45465;-53
2021/12/18 11:14:20;;;;;;;;;29.25;22.00;;;;;8.32;69.65;103270.16;5028676;28;46037;-53
2021/12/18 11:16:50;;;;;;;;;27.25;25.25;;;;;8.37;69.78;103271.00;5039589;28;45267;-53
2021/12/18 11:19:19;;;;;;;;;24.75;21.25;;;;;8.45;69.74;103271.81;5035433;28;45454;-50
2021/12/18 11:21:47;;;;;;;;;25.50;20.00;;;;;8.51;69.66;103269.13;5037549;28;45562;-50
2021/12/18 11:24:15;;;;;;;;;27.25;22.75;;;;;8.55;69.37;103265.59;5040341;28;46024;-51
2021/12/18 11:26:56;;;;;;;;;26.75;23.50;;;;;8.59;69.25;103274.31;5038186;28;45502;-49
2021/12/18 11:29:23;;;;;;;;;27.00;20.75;;;;;8.62;69.37;103279.53;5040124;28;45237;-47
2021/12/18 11:31:49;;;;;;;;;25.50;23.00;;;;;8.65;68.82;103274.25;5024461;28;45376;-51
2021/12/18 11:34:15;;;;;;;;;26.00;20.00;;;;;8.69;68.71;103278.59;5006096;28;45664;-52
2021/12/18 11:36:43;;;;;;;;;43.75;36.00;;;;;8.72;69.09;103267.16;5006517;28;45818;-52
2021/12/18 11:39:11;;;;;;;;;34.75;31.25;;;;;8.74;68.87;103262.75;5017942;28;45267;-51
2021/12/18 11:41:39;;;;;;;;;20.75;20.25;;;;;8.75;68.44;103257.47;5017583;28;45401;-55
2021/12/18 11:44:24;;;;;;;;;26.50;23.50;;;;;8.79;68.58;103255.69;5015128;28;46300;-52
2021/12/18 11:46:50;;;;;;;;;31.25;26.50;;;;;8.85;68.30;103253.88;5014564;28;45344;-54
2021/12/18 11:49:16;;;;;;;;;25.50;20.50;;;;;8.88;68.69;103252.97;5017699;28;45425;-54
2021/12/18 11:52:00;;;;;;;;;29.25;22.75;;;;;8.93;68.02;103261.69;5011716;28;45713;-52
2021/12/18 11:54:39;;;;;;;;;23.50;22.75;;;;;8.98;67.90;103248.47;5025172;28;45385;-57
2021/12/18 11:57:05;;;;;;;;;31.75;22.75;;;;;9.02;68.02;103247.53;5012091;28;45439;-53
2021/12/18 11:59:43;;;;;;;;;33.75;26.75;;;;;9.08;68.11;103247.44;5003776;28;45519;-53